createdAt,value
2019-03-29T00:00:08.684Z,11.94
2019-03-29T00:01:08.710Z,11.97
2019-03-29T00:02:08.732Z,11.98
2019-03-29T00:03:09.162Z,12.00
2019-03-29T00:04:08.788Z,11.97
2019-03-29T00:05:08.813Z,11.89
2019-03-29T00:06:08.836Z,11.86
2019-03-29T00:07:08.864Z,11.79
2019-03-29T00:08:09.344Z,11.81
2019-03-29T00:09:08.916Z,11.76
2019-03-29T00:10:08.945Z,11.70
2019-03-29T00:11:08.972Z,11.71
2019-03-29T00:12:09.000Z,11.64
2019-03-29T00:13:09.022Z,11.64
2019-03-29T00:14:09.042Z,11.63
2019-03-29T00:15:09.069Z,11.57
2019-03-29T00:16:09.100Z,11.53
2019-03-29T00:17:09.119Z,11.43
2019-03-29T00:18:10.017Z,11.43
2019-03-29T00:19:09.174Z,11.41
2019-03-29T00:20:09.197Z,11.45
2019-03-29T00:21:09.225Z,11.39
2019-03-29T00:22:09.253Z,11.39
2019-03-29T00:23:09.274Z,11.48
2019-03-29T00:24:09.302Z,11.31
2019-03-29T00:25:09.325Z,11.35
2019-03-29T00:26:09.351Z,11.35
2019-03-29T00:27:09.380Z,11.27
2019-03-29T00:28:09.403Z,11.21
2019-03-29T00:29:09.428Z,11.26
2019-03-29T00:30:09.456Z,11.27
2019-03-29T00:31:09.480Z,11.21
2019-03-29T00:32:09.505Z,11.24
2019-03-29T00:33:09.534Z,11.21
2019-03-29T00:34:09.563Z,11.21
2019-03-29T00:35:09.584Z,11.23
2019-03-29T00:36:09.616Z,11.20
2019-03-29T00:37:09.636Z,11.06
2019-03-29T00:38:09.658Z,11.12
2019-03-29T00:39:09.683Z,11.02
2019-03-29T00:40:09.714Z,11.09
2019-03-29T00:41:09.738Z,11.02
2019-03-29T00:42:09.769Z,10.90
2019-03-29T00:43:09.789Z,10.92
2019-03-29T00:44:09.815Z,10.90
2019-03-29T00:45:09.837Z,10.92
2019-03-29T00:46:09.863Z,10.88
2019-03-29T00:47:09.891Z,10.90
2019-03-29T00:48:09.918Z,10.85
2019-03-29T00:49:09.944Z,10.92
2019-03-29T00:50:09.971Z,10.79
2019-03-29T00:51:10.009Z,10.84
2019-03-29T00:52:10.016Z,10.83
2019-03-29T00:53:10.043Z,10.77
2019-03-29T00:54:10.076Z,10.76
2019-03-29T00:55:10.096Z,10.69
2019-03-29T00:56:10.124Z,10.69
2019-03-29T00:57:10.149Z,10.69
2019-03-29T00:58:10.173Z,10.57
2019-03-29T00:59:10.197Z,10.66
2019-03-29T01:00:10.226Z,10.58
2019-03-29T01:01:10.253Z,10.58
2019-03-29T01:02:10.280Z,10.58
2019-03-29T01:03:11.038Z,10.58
2019-03-29T01:04:10.344Z,10.54
2019-03-29T01:05:10.349Z,10.47
2019-03-29T01:06:10.375Z,10.41
2019-03-29T01:07:10.401Z,10.46
2019-03-29T01:08:10.832Z,10.46
2019-03-29T01:09:10.456Z,10.36
2019-03-29T01:10:10.479Z,10.39
2019-03-29T01:11:10.506Z,10.36
2019-03-29T01:12:10.531Z,10.38
2019-03-29T01:13:10.556Z,10.20
2019-03-29T01:14:10.581Z,10.32
2019-03-29T01:15:10.618Z,10.17
2019-03-29T01:16:10.639Z,10.17
2019-03-29T01:17:10.659Z,10.17
2019-03-29T01:18:11.238Z,10.17
2019-03-29T01:19:10.706Z,10.20
2019-03-29T01:20:10.735Z,10.13
2019-03-29T01:21:10.756Z,10.05
2019-03-29T01:22:10.784Z,10.14
2019-03-29T01:23:10.810Z,10.11
2019-03-29T01:24:10.839Z,10.07
2019-03-29T01:25:10.859Z,9.99
2019-03-29T01:26:10.884Z,10.11
2019-03-29T01:27:10.915Z,9.98
2019-03-29T01:28:11.880Z,9.93
2019-03-29T01:29:10.961Z,9.96
2019-03-29T01:30:10.984Z,9.93
2019-03-29T01:31:11.019Z,9.95
2019-03-29T01:32:11.036Z,9.92
2019-03-29T01:33:11.061Z,9.90
2019-03-29T01:34:11.086Z,9.90
2019-03-29T01:35:11.116Z,9.98
2019-03-29T01:36:11.140Z,9.96
2019-03-29T01:37:11.165Z,9.98
2019-03-29T01:38:21.588Z,9.90
2019-03-29T01:39:11.216Z,9.92
2019-03-29T01:40:11.239Z,9.93
2019-03-29T01:41:11.267Z,9.89
2019-03-29T01:42:11.292Z,9.88
2019-03-29T01:43:11.321Z,9.89
2019-03-29T01:44:11.352Z,9.89
2019-03-29T01:45:11.365Z,9.85
2019-03-29T01:46:12.029Z,9.82
2019-03-29T01:47:11.418Z,9.77
2019-03-29T01:48:11.441Z,9.71
2019-03-29T01:49:11.469Z,9.74
2019-03-29T01:50:11.496Z,9.74
2019-03-29T01:51:11.519Z,9.71
2019-03-29T01:52:11.551Z,9.78
2019-03-29T01:53:12.051Z,9.70
2019-03-29T01:54:11.595Z,9.63
2019-03-29T01:55:11.621Z,9.74
2019-03-29T01:56:11.644Z,9.62
2019-03-29T01:57:11.671Z,9.57
2019-03-29T01:58:11.696Z,9.60
2019-03-29T01:59:11.718Z,9.64
2019-03-29T02:00:11.751Z,9.71
2019-03-29T02:01:11.773Z,9.64
2019-03-29T02:02:11.794Z,9.60
2019-03-29T02:03:13.002Z,9.59
2019-03-29T02:04:11.850Z,9.56
2019-03-29T02:05:11.874Z,9.57
2019-03-29T02:06:11.894Z,9.55
2019-03-29T02:07:12.069Z,9.50
2019-03-29T02:08:11.949Z,9.52
2019-03-29T02:09:11.974Z,9.44
2019-03-29T02:10:12.000Z,9.47
2019-03-29T02:11:12.024Z,9.45
2019-03-29T02:12:12.047Z,9.35
2019-03-29T02:13:12.075Z,9.37
2019-03-29T02:14:12.106Z,9.39
2019-03-29T02:15:12.220Z,9.37
2019-03-29T02:16:12.157Z,9.34
2019-03-29T02:17:12.177Z,9.34
2019-03-29T02:18:12.290Z,9.38
2019-03-29T02:19:12.232Z,9.34
2019-03-29T02:20:12.254Z,9.30
2019-03-29T02:21:12.279Z,9.30
2019-03-29T02:22:12.300Z,9.27
2019-03-29T02:23:12.332Z,9.27
2019-03-29T02:24:12.348Z,9.23
2019-03-29T02:25:12.377Z,9.23
2019-03-29T02:26:12.406Z,9.20
2019-03-29T02:27:12.424Z,9.23
2019-03-29T02:28:12.452Z,9.29
2019-03-29T02:29:12.475Z,9.27
2019-03-29T02:30:12.509Z,9.11
2019-03-29T02:31:12.538Z,9.16
2019-03-29T02:32:12.551Z,9.16
2019-03-29T02:33:12.599Z,9.12
2019-03-29T02:34:12.601Z,9.14
2019-03-29T02:35:12.648Z,9.12
2019-03-29T02:36:12.654Z,9.05
2019-03-29T02:37:12.676Z,9.04
2019-03-29T02:38:12.701Z,9.11
2019-03-29T02:39:12.726Z,9.08
2019-03-29T02:40:12.757Z,9.11
2019-03-29T02:41:12.778Z,9.14
2019-03-29T02:42:14.703Z,9.03
2019-03-29T02:43:12.828Z,9.11
2019-03-29T02:44:12.850Z,9.08
2019-03-29T02:45:12.882Z,9.16
2019-03-29T02:46:12.903Z,9.09
2019-03-29T02:47:12.926Z,9.09
2019-03-29T02:48:12.964Z,9.16
2019-03-29T02:49:13.289Z,9.14
2019-03-29T02:50:13.002Z,9.11
2019-03-29T02:51:13.034Z,9.19
2019-03-29T02:52:13.056Z,9.05
2019-03-29T02:53:13.083Z,9.04
2019-03-29T02:54:13.106Z,9.03
2019-03-29T02:55:13.131Z,9.04
2019-03-29T02:56:13.153Z,9.03
2019-03-29T02:57:13.189Z,9.03
2019-03-29T02:58:13.205Z,8.90
2019-03-29T02:59:13.234Z,9.00
2019-03-29T03:00:13.249Z,8.98
2019-03-29T03:01:13.273Z,8.92
2019-03-29T03:02:13.301Z,8.86
2019-03-29T03:03:13.331Z,8.94
2019-03-29T03:04:13.348Z,8.95
2019-03-29T03:05:13.376Z,8.87
2019-03-29T03:06:13.403Z,8.92
2019-03-29T03:07:13.425Z,8.94
2019-03-29T03:08:13.459Z,8.87
2019-03-29T03:09:14.728Z,8.86
2019-03-29T03:10:13.503Z,8.80
2019-03-29T03:11:13.521Z,8.76
2019-03-29T03:12:13.547Z,8.85
2019-03-29T03:13:13.581Z,8.80
2019-03-29T03:14:13.605Z,8.72
2019-03-29T03:15:13.629Z,8.72
2019-03-29T03:16:13.645Z,8.68
2019-03-29T03:17:13.670Z,8.69
2019-03-29T03:18:13.703Z,8.67
2019-03-29T03:19:13.722Z,8.71
2019-03-29T03:20:15.471Z,8.68
2019-03-29T03:21:13.773Z,8.65
2019-03-29T03:22:13.796Z,8.58
2019-03-29T03:23:13.823Z,8.65
2019-03-29T03:24:13.863Z,8.69
2019-03-29T03:25:13.876Z,8.64
2019-03-29T03:26:13.892Z,8.64
2019-03-29T03:27:13.921Z,8.72
2019-03-29T03:28:13.944Z,8.65
2019-03-29T03:29:13.970Z,8.60
2019-03-29T03:30:14.036Z,8.60
2019-03-29T03:31:14.029Z,8.52
2019-03-29T03:32:14.045Z,8.62
2019-03-29T03:33:14.069Z,8.47
2019-03-29T03:34:14.092Z,8.53
2019-03-29T03:35:14.120Z,8.52
2019-03-29T03:36:14.143Z,8.53
2019-03-29T03:37:14.165Z,8.49
2019-03-29T03:38:14.194Z,8.54
2019-03-29T03:39:30.715Z,8.52
2019-03-29T03:40:14.267Z,8.53
2019-03-29T03:41:14.274Z,8.52
2019-03-29T03:42:14.291Z,8.49
2019-03-29T03:43:14.373Z,8.47
2019-03-29T03:44:14.343Z,8.47
2019-03-29T03:45:14.369Z,8.46
2019-03-29T03:46:14.390Z,8.46
2019-03-29T03:47:14.412Z,8.40
2019-03-29T03:48:14.436Z,8.46
2019-03-29T03:49:14.470Z,8.46
2019-03-29T03:50:14.485Z,8.44
2019-03-29T03:51:14.519Z,8.46
2019-03-29T03:52:14.535Z,8.46
2019-03-29T03:53:14.560Z,8.43
2019-03-29T03:54:14.584Z,8.46
2019-03-29T03:55:14.615Z,8.40
2019-03-29T03:56:14.637Z,8.39
2019-03-29T03:57:14.673Z,8.46
2019-03-29T03:58:14.683Z,8.46
2019-03-29T03:59:14.709Z,8.46
2019-03-29T04:00:14.734Z,8.39
2019-03-29T04:01:14.774Z,8.43
2019-03-29T04:02:14.781Z,8.35
2019-03-29T04:03:14.809Z,8.42
2019-03-29T04:04:14.833Z,8.35
2019-03-29T04:05:14.863Z,8.31
2019-03-29T04:06:14.880Z,8.39
2019-03-29T04:07:14.909Z,8.31
2019-03-29T04:08:14.938Z,8.31
2019-03-29T04:09:14.963Z,8.25
2019-03-29T04:10:14.983Z,8.42
2019-03-29T04:11:15.003Z,8.32
2019-03-29T04:12:15.036Z,8.31
2019-03-29T04:13:15.068Z,8.34
2019-03-29T04:14:15.076Z,8.25
2019-03-29T04:15:15.108Z,8.25
2019-03-29T04:16:15.126Z,8.22
2019-03-29T04:17:15.151Z,8.21
2019-03-29T04:18:16.068Z,8.24
2019-03-29T04:19:15.220Z,8.32
2019-03-29T04:20:15.226Z,8.22
2019-03-29T04:21:15.250Z,8.17
2019-03-29T04:22:15.272Z,8.11
2019-03-29T04:23:15.299Z,8.21
2019-03-29T04:24:15.330Z,8.21
2019-03-29T04:25:15.346Z,8.22
2019-03-29T04:26:15.371Z,8.17
2019-03-29T04:27:15.401Z,8.24
2019-03-29T04:28:15.420Z,8.17
2019-03-29T04:29:15.447Z,8.22
2019-03-29T04:30:15.473Z,8.19
2019-03-29T04:31:15.512Z,8.01
2019-03-29T04:32:15.529Z,8.14
2019-03-29T04:33:15.548Z,8.17
2019-03-29T04:34:15.570Z,8.17
2019-03-29T04:35:15.594Z,7.99
2019-03-29T04:36:15.616Z,7.98
2019-03-29T04:37:15.643Z,8.01
2019-03-29T04:38:15.668Z,7.99
2019-03-29T04:39:15.693Z,8.10
2019-03-29T04:40:15.716Z,8.03
2019-03-29T04:41:15.741Z,7.96
2019-03-29T04:42:15.767Z,8.01
2019-03-29T04:43:15.791Z,8.04
2019-03-29T04:44:15.816Z,8.01
2019-03-29T04:45:15.840Z,8.04
2019-03-29T04:46:15.864Z,8.04
2019-03-29T04:47:15.892Z,8.04
2019-03-29T04:48:15.911Z,8.03
2019-03-29T04:49:15.936Z,7.95
2019-03-29T04:50:15.960Z,7.96
2019-03-29T04:51:15.984Z,8.03
2019-03-29T04:52:16.009Z,8.01
2019-03-29T04:53:16.037Z,7.95
2019-03-29T04:54:16.069Z,7.96
2019-03-29T04:55:16.088Z,7.98
2019-03-29T04:56:16.109Z,7.86
2019-03-29T04:57:16.131Z,7.78
2019-03-29T04:58:16.164Z,7.85
2019-03-29T04:59:16.186Z,7.78
2019-03-29T05:00:16.205Z,7.98
2019-03-29T05:01:17.453Z,7.78
2019-03-29T05:02:16.260Z,7.89
2019-03-29T05:03:16.278Z,7.95
2019-03-29T05:04:16.305Z,7.95
2019-03-29T05:05:16.338Z,7.96
2019-03-29T05:06:16.355Z,7.92
2019-03-29T05:07:16.375Z,7.96
2019-03-29T05:08:16.400Z,7.83
2019-03-29T05:09:16.427Z,7.86
2019-03-29T05:10:21.635Z,7.98
2019-03-29T05:11:16.479Z,7.95
2019-03-29T05:12:16.504Z,7.88
2019-03-29T05:13:16.531Z,7.85
2019-03-29T05:14:16.556Z,7.89
2019-03-29T05:15:16.573Z,7.85
2019-03-29T05:16:16.594Z,7.89
2019-03-29T05:17:16.623Z,7.92
2019-03-29T05:18:16.655Z,7.80
2019-03-29T05:19:16.668Z,7.82
2019-03-29T05:20:16.693Z,7.85
2019-03-29T05:21:16.720Z,7.86
2019-03-29T05:22:16.743Z,7.83
2019-03-29T05:23:16.768Z,7.98
2019-03-29T05:24:16.791Z,7.93
2019-03-29T05:25:16.814Z,7.95
2019-03-29T05:26:16.839Z,7.96
2019-03-29T05:27:16.863Z,7.96
2019-03-29T05:28:16.890Z,7.95
2019-03-29T05:29:16.916Z,7.88
2019-03-29T05:30:16.939Z,7.98
2019-03-29T05:31:16.963Z,7.98
2019-03-29T05:32:16.987Z,7.98
2019-03-29T05:33:17.012Z,7.89
2019-03-29T05:34:17.042Z,7.95
2019-03-29T05:35:17.060Z,7.98
2019-03-29T05:36:17.087Z,7.95
2019-03-29T05:37:17.112Z,7.89
2019-03-29T05:38:17.135Z,7.92
2019-03-29T05:39:17.159Z,8.01
2019-03-29T05:40:17.183Z,7.95
2019-03-29T05:41:17.207Z,7.78
2019-03-29T05:42:17.226Z,8.04
2019-03-29T05:43:17.253Z,7.93
2019-03-29T05:44:17.282Z,8.06
2019-03-29T05:45:17.305Z,8.01
2019-03-29T05:46:17.327Z,7.99
2019-03-29T05:47:17.351Z,7.99
2019-03-29T05:48:17.383Z,7.98
2019-03-29T05:49:17.398Z,8.03
2019-03-29T05:50:17.426Z,7.98
2019-03-29T05:51:17.447Z,7.98
2019-03-29T05:52:17.477Z,8.03
2019-03-29T05:53:17.496Z,8.06
2019-03-29T05:54:17.521Z,7.96
2019-03-29T05:55:17.545Z,7.98
2019-03-29T05:56:17.570Z,7.99
2019-03-29T05:57:17.595Z,8.06
2019-03-29T05:58:17.616Z,8.03
2019-03-29T05:59:17.642Z,8.09
2019-03-29T06:00:17.666Z,7.99
2019-03-29T06:01:17.690Z,8.06
2019-03-29T06:02:17.714Z,7.99
2019-03-29T06:03:17.736Z,8.11
2019-03-29T06:04:17.766Z,8.13
2019-03-29T06:05:17.788Z,8.25
2019-03-29T06:06:17.809Z,8.14
2019-03-29T06:07:17.836Z,8.22
2019-03-29T06:08:17.867Z,8.25
2019-03-29T06:09:17.893Z,8.24
2019-03-29T06:10:17.913Z,8.26
2019-03-29T06:11:17.933Z,8.31
2019-03-29T06:12:17.958Z,8.24
2019-03-29T06:13:17.981Z,8.25
2019-03-29T06:14:18.004Z,8.28
2019-03-29T06:15:18.031Z,8.25
2019-03-29T06:16:18.053Z,8.26
2019-03-29T06:17:18.079Z,8.31
2019-03-29T06:18:18.115Z,8.31
2019-03-29T06:19:18.126Z,8.47
2019-03-29T06:20:18.151Z,8.47
2019-03-29T06:21:18.181Z,8.46
2019-03-29T06:22:18.201Z,8.52
2019-03-29T06:23:18.223Z,8.60
2019-03-29T06:24:18.261Z,8.69
2019-03-29T06:25:18.274Z,8.87
2019-03-29T06:26:18.299Z,9.38
2019-03-29T06:27:18.325Z,9.84
2019-03-29T06:28:18.347Z,10.20
2019-03-29T06:29:18.378Z,10.38
2019-03-29T06:30:18.401Z,10.67
2019-03-29T06:31:18.420Z,10.70
2019-03-29T06:32:18.444Z,10.85
2019-03-29T06:33:18.470Z,11.06
2019-03-29T06:34:18.503Z,11.24
2019-03-29T06:35:18.522Z,11.45
2019-03-29T06:36:18.547Z,11.27
2019-03-29T06:37:18.571Z,11.48
2019-03-29T06:38:18.595Z,11.68
2019-03-29T06:39:21.268Z,11.84
2019-03-29T06:40:18.648Z,11.94
2019-03-29T06:41:18.674Z,12.11
2019-03-29T06:42:18.701Z,12.31
2019-03-29T06:43:18.726Z,12.29
2019-03-29T06:44:18.758Z,12.58
2019-03-29T06:45:18.782Z,12.61
2019-03-29T06:46:18.815Z,12.77
2019-03-29T06:47:18.835Z,12.98
2019-03-29T06:48:18.863Z,13.17
2019-03-29T06:49:18.890Z,12.94
2019-03-29T06:50:18.915Z,12.92
2019-03-29T06:51:18.944Z,12.71
2019-03-29T06:52:18.972Z,12.74
2019-03-29T06:53:18.998Z,12.70
2019-03-29T06:54:19.033Z,12.92
2019-03-29T06:55:19.056Z,12.94
2019-03-29T06:56:19.084Z,12.94
2019-03-29T06:57:19.112Z,13.01
2019-03-29T06:58:19.146Z,12.99
2019-03-29T06:59:19.249Z,13.02
2019-03-29T07:00:19.197Z,13.01
2019-03-29T07:01:19.226Z,13.09
2019-03-29T07:02:19.252Z,12.96
2019-03-29T07:03:19.289Z,13.07
2019-03-29T07:04:19.313Z,13.24
2019-03-29T07:05:19.341Z,13.27
2019-03-29T07:06:19.367Z,13.51
2019-03-29T07:07:19.396Z,13.73
2019-03-29T07:08:19.426Z,13.76
2019-03-29T07:09:19.457Z,13.99
2019-03-29T07:10:19.486Z,14.12
2019-03-29T07:11:19.514Z,14.26
2019-03-29T07:12:19.552Z,14.33
2019-03-29T07:13:19.577Z,14.45
2019-03-29T07:14:19.603Z,14.28
2019-03-29T07:15:20.856Z,14.49
2019-03-29T07:16:19.661Z,14.51
2019-03-29T07:18:15.498Z,14.70
2019-03-29T07:19:12.295Z,14.39
2019-03-29T07:20:12.325Z,14.21
2019-03-29T07:21:21.555Z,14.06
2019-03-29T07:22:12.385Z,14.05
2019-03-29T07:23:15.643Z,13.91
2019-03-29T07:24:12.440Z,13.09
2019-03-29T07:25:12.472Z,12.25
2019-03-29T07:26:12.500Z,11.76
2019-03-29T07:27:12.540Z,11.38
2019-03-29T07:28:12.566Z,11.27
2019-03-29T07:29:12.594Z,11.13
2019-03-29T07:30:12.620Z,11.16
2019-03-29T07:31:12.650Z,11.26
2019-03-29T07:32:12.689Z,11.76
2019-03-29T07:33:12.711Z,12.34
2019-03-29T07:34:12.744Z,12.96
2019-03-29T07:35:12.774Z,13.58
2019-03-29T07:36:12.799Z,14.05
2019-03-29T07:37:12.833Z,14.16
2019-03-29T07:38:12.866Z,14.45
2019-03-29T07:39:12.890Z,14.83
2019-03-29T07:40:12.924Z,14.93
2019-03-29T07:41:12.946Z,15.02
2019-03-29T07:42:12.976Z,15.07
2019-03-29T07:43:13.005Z,15.00
2019-03-29T07:44:13.036Z,15.27
2019-03-29T07:45:13.066Z,15.12
2019-03-29T07:46:13.096Z,15.26
2019-03-29T07:47:13.125Z,15.53
2019-03-29T07:48:13.156Z,15.58
2019-03-29T07:49:13.185Z,15.70
2019-03-29T07:50:13.212Z,15.70
2019-03-29T07:51:13.243Z,15.74
2019-03-29T07:52:16.704Z,15.40
2019-03-29T07:53:13.304Z,15.35
2019-03-29T07:54:13.335Z,15.63
2019-03-29T07:55:13.363Z,15.99
2019-03-29T07:56:13.394Z,16.39
2019-03-29T07:57:13.427Z,16.84
2019-03-29T07:58:13.458Z,17.07
2019-03-29T07:59:13.487Z,17.43
2019-03-29T08:00:13.521Z,17.50
2019-03-29T08:01:13.550Z,17.32
2019-03-29T08:02:13.584Z,17.18
2019-03-29T08:03:56.167Z,16.59
2019-03-29T08:04:56.197Z,16.52
2019-03-29T08:05:56.229Z,17.00
2019-03-29T08:06:56.263Z,17.17
2019-03-29T08:07:56.299Z,17.27
2019-03-29T08:08:56.329Z,17.12
2019-03-29T08:09:56.360Z,17.27
2019-03-29T08:10:56.396Z,17.49
2019-03-29T08:11:56.428Z,17.77
2019-03-29T08:12:56.460Z,18.13
2019-03-29T08:13:56.491Z,18.39
2019-03-29T08:14:56.526Z,18.21
2019-03-29T08:15:56.638Z,18.29
2019-03-29T08:16:56.591Z,18.13
2019-03-29T08:18:39.185Z,17.47
2019-03-29T08:19:39.217Z,17.15
2019-03-29T08:20:43.938Z,17.32
2019-03-29T08:21:39.282Z,17.52
2019-03-29T08:22:39.316Z,17.95
2019-03-29T08:23:39.350Z,18.17
2019-03-29T08:24:39.383Z,17.99
2019-03-29T08:25:39.418Z,17.98
2019-03-29T08:26:39.451Z,18.13
2019-03-29T08:27:39.486Z,17.87
2019-03-29T08:28:39.518Z,18.08
2019-03-29T08:29:39.555Z,18.01
2019-03-29T08:30:39.586Z,18.02
2019-03-29T08:31:39.623Z,18.29
2019-03-29T08:32:39.661Z,18.63
2019-03-29T08:33:39.689Z,19.20
2019-03-29T08:34:39.727Z,19.47
2019-03-29T08:35:39.760Z,19.56
2019-03-29T08:36:39.799Z,20.04
2019-03-29T08:37:39.834Z,20.40
2019-03-29T08:38:39.872Z,20.44
2019-03-29T08:39:41.316Z,19.87
2019-03-29T08:40:39.936Z,19.89
2019-03-29T08:41:39.969Z,19.87
2019-03-29T08:42:44.045Z,20.30
2019-03-29T08:43:40.049Z,20.41
2019-03-29T08:44:40.075Z,20.68
2019-03-29T08:45:40.112Z,20.46
2019-03-29T08:46:40.146Z,19.92
2019-03-29T08:47:40.182Z,19.93
2019-03-29T08:48:40.220Z,19.83
2019-03-29T08:49:40.254Z,19.92
2019-03-29T08:50:40.287Z,20.05
2019-03-29T08:51:41.618Z,20.02
2019-03-29T08:52:42.987Z,20.11
2019-03-29T08:53:40.400Z,20.25
2019-03-29T08:54:40.429Z,20.34
2019-03-29T08:55:46.182Z,20.67
2019-03-29T08:56:40.501Z,20.97
2019-03-29T08:57:40.538Z,21.00
2019-03-29T09:01:06.838Z,19.80
2019-03-29T09:02:06.872Z,20.02
2019-03-29T09:03:06.911Z,20.25
2019-03-29T09:04:06.958Z,20.38
2019-03-29T09:05:06.983Z,20.34
2019-03-29T09:06:07.020Z,20.34
2019-03-29T09:07:07.054Z,19.89
2019-03-29T09:08:07.092Z,19.78
2019-03-29T09:09:07.129Z,20.12
2019-03-29T09:10:07.166Z,20.25
2019-03-29T09:11:07.801Z,20.12
2019-03-29T09:12:14.208Z,19.92
2019-03-29T09:13:07.273Z,20.08
2019-03-29T09:14:07.311Z,20.44
2019-03-29T09:15:07.355Z,20.18
2019-03-29T09:16:07.387Z,20.11
2019-03-29T09:17:07.423Z,20.35
2019-03-29T09:18:07.458Z,20.41
2019-03-29T09:19:07.500Z,20.75
2019-03-29T09:20:10.404Z,21.12
2019-03-29T09:21:07.574Z,21.30
2019-03-29T09:22:07.606Z,21.59
2019-03-29T09:23:10.418Z,21.77
2019-03-29T09:24:21.289Z,21.90
2019-03-29T09:25:07.716Z,22.15
2019-03-29T09:26:07.750Z,22.27
2019-03-29T09:27:07.790Z,22.26
2019-03-29T09:28:07.825Z,21.80
2019-03-29T09:29:07.862Z,21.66
2019-03-29T09:30:07.899Z,21.96
2019-03-29T09:31:07.937Z,22.11
2019-03-29T09:32:07.972Z,22.05
2019-03-29T09:33:08.012Z,21.94
2019-03-29T09:34:08.045Z,21.30
2019-03-29T09:35:08.086Z,20.61
2019-03-29T09:36:08.162Z,21.11
2019-03-29T09:37:08.156Z,21.16
2019-03-29T09:38:08.193Z,21.43
2019-03-29T09:39:08.231Z,21.85
2019-03-29T09:40:08.272Z,22.15
2019-03-29T09:41:08.306Z,22.00
2019-03-29T09:42:09.823Z,21.68
2019-03-29T09:43:08.735Z,21.93
2019-03-29T09:44:08.415Z,21.67
2019-03-29T09:45:08.466Z,21.82
2019-03-29T09:46:08.491Z,22.08
2019-03-29T09:47:08.533Z,21.89
2019-03-29T09:48:08.573Z,22.11
2019-03-29T09:49:08.637Z,22.41
2019-03-29T09:50:10.575Z,22.34
2019-03-29T09:51:08.677Z,22.52
2019-03-29T09:52:08.722Z,22.27
2019-03-29T09:53:08.757Z,21.66
2019-03-29T09:54:08.791Z,21.09
2019-03-29T09:55:08.829Z,21.27
2019-03-29T09:56:08.865Z,21.55
2019-03-29T09:57:10.149Z,21.99
2019-03-29T09:58:08.939Z,21.83
2019-03-29T09:59:08.978Z,21.82
2019-03-29T10:00:19.227Z,22.22
2019-03-29T10:01:09.152Z,22.33
2019-03-29T10:02:09.090Z,22.23
2019-03-29T10:03:09.128Z,22.75
2019-03-29T10:04:09.166Z,22.96
2019-03-29T10:05:09.200Z,22.51
2019-03-29T10:06:09.244Z,22.46
2019-03-29T10:07:09.276Z,22.05
2019-03-29T10:08:09.314Z,22.09
2019-03-29T10:09:09.354Z,22.36
2019-03-29T10:10:09.391Z,22.75
2019-03-29T10:11:09.426Z,22.91
2019-03-29T10:12:09.464Z,23.14
2019-03-29T10:13:09.502Z,22.42
2019-03-29T10:14:12.161Z,22.31
2019-03-29T10:15:09.579Z,22.26
2019-03-29T10:16:09.614Z,22.49
2019-03-29T10:17:09.652Z,22.54
2019-03-29T10:18:09.692Z,22.49
2019-03-29T10:19:09.727Z,22.36
2019-03-29T10:20:09.761Z,21.97
2019-03-29T10:21:09.801Z,22.46
2019-03-29T10:22:09.836Z,22.30
2019-03-29T10:23:09.883Z,22.64
2019-03-29T10:24:09.915Z,22.76
2019-03-29T10:25:19.184Z,21.86
2019-03-29T10:26:09.991Z,21.76
2019-03-29T10:27:13.467Z,22.15
2019-03-29T10:28:10.062Z,22.41
2019-03-29T10:29:10.104Z,22.69
2019-03-29T10:30:10.138Z,22.36
2019-03-29T10:31:10.283Z,22.22
2019-03-29T10:32:12.840Z,22.55
2019-03-29T10:33:10.252Z,22.66
2019-03-29T10:34:10.292Z,22.57
2019-03-29T10:35:10.324Z,22.75
2019-03-29T10:36:10.367Z,22.64
2019-03-29T10:37:10.394Z,22.60
2019-03-29T10:38:10.432Z,22.61
2019-03-29T10:39:10.485Z,22.64
2019-03-29T10:40:10.509Z,22.66
2019-03-29T10:41:10.547Z,22.66
2019-03-29T10:42:10.583Z,22.75
2019-03-29T10:43:10.620Z,23.03
2019-03-29T10:44:10.659Z,23.25
2019-03-29T10:45:10.695Z,23.56
2019-03-29T10:46:10.741Z,23.45
2019-03-29T10:47:10.778Z,23.35
2019-03-29T10:48:10.817Z,23.15
2019-03-29T10:49:10.848Z,23.37
2019-03-29T10:50:10.887Z,23.52
2019-03-29T10:51:10.924Z,23.34
2019-03-29T10:52:10.959Z,23.79
2019-03-29T10:53:11.000Z,24.00
2019-03-29T10:54:11.042Z,23.32
2019-03-29T10:55:11.089Z,22.89
2019-03-29T10:56:11.113Z,23.29
2019-03-29T10:57:11.152Z,23.00
2019-03-29T10:58:11.194Z,23.00
2019-03-29T10:59:11.233Z,22.73
2019-03-29T11:00:11.272Z,22.26
2019-03-29T11:01:11.305Z,22.09
2019-03-29T11:02:11.345Z,22.45
2019-03-29T11:03:11.379Z,22.54
2019-03-29T11:04:11.418Z,22.57
2019-03-29T11:05:11.454Z,22.63
2019-03-29T11:06:11.494Z,23.00
2019-03-29T11:07:11.531Z,22.96
2019-03-29T11:08:12.388Z,22.64
2019-03-29T11:09:11.607Z,23.14
2019-03-29T11:10:11.650Z,23.22
2019-03-29T11:11:11.686Z,23.67
2019-03-29T11:12:11.730Z,23.59
2019-03-29T11:13:13.817Z,23.60
2019-03-29T11:14:11.801Z,23.79
2019-03-29T11:15:11.834Z,23.52
2019-03-29T11:16:11.873Z,22.91
2019-03-29T11:17:11.916Z,22.64
2019-03-29T11:18:11.952Z,22.99
2019-03-29T11:19:11.988Z,23.15
2019-03-29T11:20:12.025Z,22.79
2019-03-29T11:21:12.064Z,22.79
2019-03-29T11:22:12.102Z,23.21
2019-03-29T11:23:12.139Z,23.09
2019-03-29T11:24:12.174Z,23.44
2019-03-29T11:25:12.213Z,23.42
2019-03-29T11:26:14.874Z,23.48
2019-03-29T11:27:12.290Z,23.47
2019-03-29T11:28:12.328Z,23.18
2019-03-29T11:29:12.366Z,23.60
2019-03-29T11:30:12.400Z,23.85
2019-03-29T11:31:12.438Z,24.07
2019-03-29T11:32:12.476Z,22.94
2019-03-29T11:33:12.516Z,21.58
2019-03-29T11:34:12.551Z,22.15
2019-03-29T11:35:12.591Z,22.88
2019-03-29T11:36:12.641Z,22.67
2019-03-29T11:37:12.666Z,22.91
2019-03-29T11:38:12.703Z,23.37
2019-03-29T11:39:12.740Z,23.74
2019-03-29T11:40:12.785Z,23.92
2019-03-29T11:41:12.814Z,24.08
2019-03-29T11:42:12.859Z,24.07
2019-03-29T11:43:26.016Z,24.24
2019-03-29T11:44:12.927Z,24.48
2019-03-29T11:45:12.965Z,24.48
2019-03-29T11:46:13.003Z,24.64
2019-03-29T11:47:13.043Z,24.80
2019-03-29T11:48:13.082Z,25.23
2019-03-29T11:49:13.115Z,25.41
2019-03-29T11:50:13.154Z,25.56
2019-03-29T11:51:19.113Z,25.64
2019-03-29T11:52:13.231Z,25.60
2019-03-29T11:53:13.273Z,25.38
2019-03-29T11:54:13.307Z,25.41
2019-03-29T11:55:13.344Z,25.51
2019-03-29T11:56:13.383Z,25.78
2019-03-29T11:57:13.421Z,25.51
2019-03-29T11:58:13.456Z,24.64
2019-03-29T11:59:13.498Z,23.92
2019-03-29T12:00:13.533Z,24.08
2019-03-29T12:01:13.571Z,24.22
2019-03-29T12:02:13.609Z,24.34
2019-03-29T12:03:13.647Z,24.46
2019-03-29T12:04:13.686Z,24.74
2019-03-29T12:05:13.726Z,24.71
2019-03-29T12:06:13.769Z,24.61
2019-03-29T12:07:13.819Z,24.69
2019-03-29T12:08:17.469Z,24.14
2019-03-29T12:09:13.873Z,24.11
2019-03-29T12:10:13.919Z,24.24
2019-03-29T12:11:13.953Z,23.96
2019-03-29T12:12:13.988Z,24.17
2019-03-29T12:13:14.030Z,24.26
2019-03-29T12:14:14.063Z,24.00
2019-03-29T12:15:14.102Z,24.14
2019-03-29T12:16:14.139Z,23.87
2019-03-29T12:17:14.182Z,23.63
2019-03-29T12:18:14.214Z,23.29
2019-03-29T12:19:14.252Z,22.91
2019-03-29T12:20:14.291Z,23.22
2019-03-29T12:21:14.336Z,23.59
2019-03-29T12:22:14.365Z,23.97
2019-03-29T12:23:14.404Z,23.94
2019-03-29T12:24:14.440Z,23.85
2019-03-29T12:25:14.481Z,24.21
2019-03-29T12:26:14.524Z,24.29
2019-03-29T12:27:14.553Z,23.77
2019-03-29T12:28:14.592Z,23.56
2019-03-29T12:29:14.630Z,23.19
2019-03-29T12:30:30.506Z,23.10
2019-03-29T12:31:14.702Z,23.45
2019-03-29T12:32:14.741Z,23.57
2019-03-29T12:33:14.777Z,23.85
2019-03-29T12:34:14.813Z,24.17
2019-03-29T12:35:14.859Z,23.44
2019-03-29T12:36:14.886Z,23.40
2019-03-29T12:37:14.925Z,23.75
2019-03-29T12:38:14.961Z,23.97
2019-03-29T12:39:15.000Z,24.22
2019-03-29T12:40:15.036Z,24.90
2019-03-29T12:41:15.080Z,24.90
2019-03-29T12:42:15.108Z,25.24
2019-03-29T12:43:15.159Z,25.45
2019-03-29T12:44:15.181Z,24.89
2019-03-29T12:45:15.219Z,24.42
2019-03-29T12:46:15.259Z,24.61
2019-03-29T12:47:15.294Z,25.11
2019-03-29T12:48:15.333Z,25.66
2019-03-29T12:49:15.370Z,26.19
2019-03-29T12:50:15.402Z,26.49
2019-03-29T12:51:15.441Z,26.74
2019-03-29T12:52:15.481Z,26.69
2019-03-29T12:53:15.518Z,26.54
2019-03-29T12:54:15.549Z,25.78
2019-03-29T12:55:15.594Z,24.82
2019-03-29T12:56:15.629Z,24.08
2019-03-29T12:57:15.661Z,23.92
2019-03-29T12:58:15.699Z,23.75
2019-03-29T12:59:15.738Z,23.74
2019-03-29T13:00:15.772Z,24.24
2019-03-29T13:01:15.809Z,23.45
2019-03-29T13:02:15.846Z,23.85
2019-03-29T13:03:18.510Z,23.99
2019-03-29T13:04:15.925Z,24.51
2019-03-29T13:05:15.953Z,25.05
2019-03-29T13:06:16.001Z,25.33
2019-03-29T13:07:16.032Z,25.51